sensor_id;sensor_type;location;lat;lon;timestamp;P1;durP1;ratioP1;P2;durP2;ratioP2
42840;SDS011;28491;46.898;7.660;2023-03-05T00:01:26;39.22;;;24.42;;
42840;SDS011;28491;46.898;7.660;2023-03-05T00:03:54;43.78;;;23.05;;
42840;SDS011;28491;46.898;7.660;2023-03-05T00:06:21;44.83;;;23.65;;
42840;SDS011;28491;46.898;7.660;2023-03-05T00:08:48;46.60;;;26.52;;
42840;SDS011;28491;46.898;7.660;2023-03-05T00:11:15;42.35;;;26.13;;
42840;SDS011;28491;46.898;7.660;2023-03-05T00:13:41;42.83;;;24.92;;
42840;SDS011;28491;46.898;7.660;2023-03-05T00:16:08;42.47;;;24.05;;
42840;SDS011;28491;46.898;7.660;2023-03-05T00:18:36;45.50;;;24.63;;
42840;SDS011;28491;46.898;7.660;2023-03-05T00:21:02;43.03;;;23.38;;
42840;SDS011;28491;46.898;7.660;2023-03-05T00:23:28;43.10;;;23.85;;
42840;SDS011;28491;46.898;7.660;2023-03-05T00:25:53;42.47;;;25.42;;
42840;SDS011;28491;46.898;7.660;2023-03-05T00:28:19;45.28;;;25.92;;
42840;SDS011;28491;46.898;7.660;2023-03-05T00:30:44;39.80;;;22.58;;
42840;SDS011;28491;46.898;7.660;2023-03-05T00:33:10;36.90;;;22.00;;
42840;SDS011;28491;46.898;7.660;2023-03-05T00:35:37;37.00;;;22.67;;
42840;SDS011;28491;46.898;7.660;2023-03-05T00:38:04;42.03;;;22.80;;
42840;SDS011;28491;46.898;7.660;2023-03-05T00:40:33;43.90;;;23.33;;
42840;SDS011;28491;46.898;7.660;2023-03-05T00:42:59;42.05;;;23.40;;
42840;SDS011;28491;46.898;7.660;2023-03-05T00:45:25;41.38;;;22.80;;
42840;SDS011;28491;46.898;7.660;2023-03-05T00:47:50;46.97;;;23.95;;
42840;SDS011;28491;46.898;7.660;2023-03-05T00:50:16;38.10;;;23.67;;
42840;SDS011;28491;46.898;7.660;2023-03-05T00:52:41;44.45;;;23.73;;
42840;SDS011;28491;46.898;7.660;2023-03-05T00:55:07;40.50;;;22.25;;
42840;SDS011;28491;46.898;7.660;2023-03-05T00:57:33;40.05;;;23.67;;
42840;SDS011;28491;46.898;7.660;2023-03-05T00:59:58;42.03;;;22.98;;
42840;SDS011;28491;46.898;7.660;2023-03-05T01:02:25;40.15;;;22.90;;
42840;SDS011;28491;46.898;7.660;2023-03-05T01:04:50;43.20;;;23.48;;
42840;SDS011;28491;46.898;7.660;2023-03-05T01:07:16;38.50;;;22.27;;
42840;SDS011;28491;46.898;7.660;2023-03-05T01:09:41;44.55;;;24.88;;
42840;SDS011;28491;46.898;7.660;2023-03-05T01:12:07;39.72;;;23.15;;
42840;SDS011;28491;46.898;7.660;2023-03-05T01:14:33;39.30;;;22.55;;
42840;SDS011;28491;46.898;7.660;2023-03-05T01:16:59;38.42;;;23.48;;
42840;SDS011;28491;46.898;7.660;2023-03-05T01:19:25;40.15;;;21.73;;
42840;SDS011;28491;46.898;7.660;2023-03-05T01:21:51;45.05;;;23.52;;
42840;SDS011;28491;46.898;7.660;2023-03-05T01:24:16;42.78;;;25.05;;
42840;SDS011;28491;46.898;7.660;2023-03-05T01:26:42;36.65;;;22.00;;
42840;SDS011;28491;46.898;7.660;2023-03-05T01:29:07;40.28;;;23.20;;
42840;SDS011;28491;46.898;7.660;2023-03-05T01:31:33;38.38;;;21.83;;
42840;SDS011;28491;46.898;7.660;2023-03-05T01:33:58;43.42;;;22.90;;
42840;SDS011;28491;46.898;7.660;2023-03-05T01:36:24;36.47;;;22.50;;
42840;SDS011;28491;46.898;7.660;2023-03-05T01:38:50;41.78;;;21.33;;
42840;SDS011;28491;46.898;7.660;2023-03-05T01:41:16;42.42;;;22.58;;
42840;SDS011;28491;46.898;7.660;2023-03-05T01:43:48;41.42;;;23.33;;
42840;SDS011;28491;46.898;7.660;2023-03-05T01:49:06;35.72;;;21.75;;
42840;SDS011;28491;46.898;7.660;2023-03-05T01:54:39;40.60;;;24.63;;
42840;SDS011;28491;46.898;7.660;2023-03-05T01:57:12;42.22;;;21.88;;
42840;SDS011;28491;46.898;7.660;2023-03-05T01:59:40;46.35;;;22.92;;
42840;SDS011;28491;46.898;7.660;2023-03-05T02:04:45;42.90;;;22.40;;
42840;SDS011;28491;46.898;7.660;2023-03-05T02:07:21;40.63;;;22.15;;
42840;SDS011;28491;46.898;7.660;2023-03-05T02:09:47;46.90;;;25.23;;
42840;SDS011;28491;46.898;7.660;2023-03-05T02:12:13;40.28;;;22.17;;
42840;SDS011;28491;46.898;7.660;2023-03-05T02:14:40;39.80;;;22.00;;
42840;SDS011;28491;46.898;7.660;2023-03-05T02:17:07;37.72;;;21.42;;
42840;SDS011;28491;46.898;7.660;2023-03-05T02:19:47;43.83;;;24.95;;
42840;SDS011;28491;46.898;7.660;2023-03-05T02:22:17;41.67;;;21.60;;
42840;SDS011;28491;46.898;7.660;2023-03-05T02:24:43;43.58;;;23.45;;
42840;SDS011;28491;46.898;7.660;2023-03-05T02:27:09;40.60;;;22.90;;
42840;SDS011;28491;46.898;7.660;2023-03-05T02:29:38;40.07;;;23.93;;
42840;SDS011;28491;46.898;7.660;2023-03-05T02:32:07;38.72;;;23.50;;
42840;SDS011;28491;46.898;7.660;2023-03-05T02:34:33;44.25;;;25.77;;
42840;SDS011;28491;46.898;7.660;2023-03-05T02:36:59;47.63;;;24.33;;
42840;SDS011;28491;46.898;7.660;2023-03-05T02:39:26;44.20;;;25.58;;
42840;SDS011;28491;46.898;7.660;2023-03-05T02:41:52;43.08;;;23.73;;
42840;SDS011;28491;46.898;7.660;2023-03-05T02:44:17;42.42;;;24.15;;
42840;SDS011;28491;46.898;7.660;2023-03-05T02:46:43;48.05;;;26.02;;
42840;SDS011;28491;46.898;7.660;2023-03-05T02:49:08;39.65;;;24.00;;
42840;SDS011;28491;46.898;7.660;2023-03-05T02:51:34;45.05;;;24.10;;
42840;SDS011;28491;46.898;7.660;2023-03-05T02:53:59;49.65;;;25.52;;
42840;SDS011;28491;46.898;7.660;2023-03-05T02:56:25;41.78;;;24.42;;
42840;SDS011;28491;46.898;7.660;2023-03-05T02:58:50;41.53;;;23.17;;
42840;SDS011;28491;46.898;7.660;2023-03-05T03:01:16;43.72;;;25.88;;
42840;SDS011;28491;46.898;7.660;2023-03-05T03:03:41;45.65;;;24.35;;
42840;SDS011;28491;46.898;7.660;2023-03-05T03:06:07;42.92;;;25.70;;
42840;SDS011;28491;46.898;7.660;2023-03-05T03:08:32;44.25;;;23.73;;
42840;SDS011;28491;46.898;7.660;2023-03-05T03:11:05;46.92;;;25.80;;
42840;SDS011;28491;46.898;7.660;2023-03-05T03:13:36;70.47;;;27.63;;
42840;SDS011;28491;46.898;7.660;2023-03-05T03:16:03;42.67;;;24.33;;
42840;SDS011;28491;46.898;7.660;2023-03-05T03:18:30;50.17;;;24.80;;
42840;SDS011;28491;46.898;7.660;2023-03-05T03:20:56;42.88;;;25.95;;
42840;SDS011;28491;46.898;7.660;2023-03-05T03:23:22;44.28;;;25.48;;
42840;SDS011;28491;46.898;7.660;2023-03-05T03:25:47;49.22;;;26.17;;
42840;SDS011;28491;46.898;7.660;2023-03-05T03:28:13;57.13;;;26.00;;
42840;SDS011;28491;46.898;7.660;2023-03-05T03:30:38;49.78;;;26.38;;
42840;SDS011;28491;46.898;7.660;2023-03-05T03:33:04;52.30;;;27.02;;
42840;SDS011;28491;46.898;7.660;2023-03-05T03:35:29;52.42;;;26.58;;
42840;SDS011;28491;46.898;7.660;2023-03-05T03:37:55;47.60;;;28.95;;
42840;SDS011;28491;46.898;7.660;2023-03-05T03:40:20;42.33;;;24.85;;
42840;SDS011;28491;46.898;7.660;2023-03-05T03:42:46;48.97;;;27.15;;
42840;SDS011;28491;46.898;7.660;2023-03-05T03:45:12;66.75;;;27.58;;
42840;SDS011;28491;46.898;7.660;2023-03-05T03:47:37;60.30;;;32.40;;
42840;SDS011;28491;46.898;7.660;2023-03-05T03:50:03;49.83;;;28.05;;
42840;SDS011;28491;46.898;7.660;2023-03-05T03:52:29;51.15;;;29.17;;
42840;SDS011;28491;46.898;7.660;2023-03-05T03:54:54;54.83;;;29.17;;
42840;SDS011;28491;46.898;7.660;2023-03-05T03:57:25;47.83;;;25.73;;
42840;SDS011;28491;46.898;7.660;2023-03-05T03:59:51;53.80;;;29.90;;
42840;SDS011;28491;46.898;7.660;2023-03-05T04:02:17;52.65;;;26.88;;
42840;SDS011;28491;46.898;7.660;2023-03-05T04:04:42;54.35;;;31.20;;
42840;SDS011;28491;46.898;7.660;2023-03-05T04:07:08;55.80;;;29.45;;
42840;SDS011;28491;46.898;7.660;2023-03-05T04:09:34;55.70;;;29.65;;
42840;SDS011;28491;46.898;7.660;2023-03-05T04:11:59;59.90;;;32.67;;
42840;SDS011;28491;46.898;7.660;2023-03-05T04:14:25;52.30;;;30.77;;
42840;SDS011;28491;46.898;7.660;2023-03-05T04:16:51;50.45;;;29.83;;
42840;SDS011;28491;46.898;7.660;2023-03-05T04:19:17;53.83;;;28.60;;
42840;SDS011;28491;46.898;7.660;2023-03-05T04:21:42;48.30;;;27.98;;
42840;SDS011;28491;46.898;7.660;2023-03-05T04:24:08;58.72;;;30.48;;
42840;SDS011;28491;46.898;7.660;2023-03-05T04:26:33;50.85;;;28.83;;
42840;SDS011;28491;46.898;7.660;2023-03-05T04:28:59;57.45;;;30.25;;
42840;SDS011;28491;46.898;7.660;2023-03-05T04:31:25;54.90;;;29.88;;
42840;SDS011;28491;46.898;7.660;2023-03-05T04:33:50;57.33;;;28.17;;
42840;SDS011;28491;46.898;7.660;2023-03-05T04:36:16;53.20;;;26.98;;
42840;SDS011;28491;46.898;7.660;2023-03-05T04:38:41;49.15;;;28.05;;
42840;SDS011;28491;46.898;7.660;2023-03-05T04:41:07;53.42;;;28.55;;
42840;SDS011;28491;46.898;7.660;2023-03-05T04:43:32;54.95;;;31.90;;
42840;SDS011;28491;46.898;7.660;2023-03-05T04:45:58;55.05;;;29.63;;
42840;SDS011;28491;46.898;7.660;2023-03-05T04:48:23;64.13;;;34.92;;
42840;SDS011;28491;46.898;7.660;2023-03-05T04:50:49;55.40;;;30.55;;
42840;SDS011;28491;46.898;7.660;2023-03-05T04:53:15;60.90;;;32.03;;
42840;SDS011;28491;46.898;7.660;2023-03-05T04:55:41;53.70;;;29.23;;
42840;SDS011;28491;46.898;7.660;2023-03-05T04:58:07;67.22;;;30.17;;
42840;SDS011;28491;46.898;7.660;2023-03-05T05:00:33;54.70;;;30.08;;
42840;SDS011;28491;46.898;7.660;2023-03-05T05:02:59;55.88;;;28.08;;
42840;SDS011;28491;46.898;7.660;2023-03-05T05:05:25;52.15;;;30.02;;
42840;SDS011;28491;46.898;7.660;2023-03-05T05:07:53;53.47;;;26.92;;
42840;SDS011;28491;46.898;7.660;2023-03-05T05:10:20;49.90;;;28.75;;
42840;SDS011;28491;46.898;7.660;2023-03-05T05:12:45;64.03;;;34.78;;
42840;SDS011;28491;46.898;7.660;2023-03-05T05:15:11;66.90;;;34.10;;
42840;SDS011;28491;46.898;7.660;2023-03-05T05:17:37;66.18;;;31.20;;
42840;SDS011;28491;46.898;7.660;2023-03-05T05:20:03;81.78;;;30.15;;
42840;SDS011;28491;46.898;7.660;2023-03-05T05:22:30;60.03;;;30.63;;
42840;SDS011;28491;46.898;7.660;2023-03-05T05:24:57;55.83;;;30.20;;
42840;SDS011;28491;46.898;7.660;2023-03-05T05:27:22;59.03;;;31.95;;
42840;SDS011;28491;46.898;7.660;2023-03-05T05:29:48;67.43;;;32.17;;
42840;SDS011;28491;46.898;7.660;2023-03-05T05:32:17;62.50;;;31.20;;
42840;SDS011;28491;46.898;7.660;2023-03-05T05:34:43;54.90;;;27.10;;
42840;SDS011;28491;46.898;7.660;2023-03-05T05:37:09;56.67;;;30.52;;
42840;SDS011;28491;46.898;7.660;2023-03-05T05:39:34;62.08;;;31.15;;
42840;SDS011;28491;46.898;7.660;2023-03-05T05:42:00;61.60;;;33.92;;
42840;SDS011;28491;46.898;7.660;2023-03-05T05:44:26;61.95;;;30.10;;
42840;SDS011;28491;46.898;7.660;2023-03-05T05:46:51;76.13;;;33.75;;
42840;SDS011;28491;46.898;7.660;2023-03-05T05:49:17;66.32;;;31.77;;
42840;SDS011;28491;46.898;7.660;2023-03-05T05:51:42;61.13;;;33.55;;
42840;SDS011;28491;46.898;7.660;2023-03-05T05:54:10;57.40;;;31.83;;
42840;SDS011;28491;46.898;7.660;2023-03-05T05:56:39;64.25;;;31.15;;
42840;SDS011;28491;46.898;7.660;2023-03-05T05:59:05;61.33;;;32.22;;
42840;SDS011;28491;46.898;7.660;2023-03-05T06:01:32;72.43;;;33.42;;
42840;SDS011;28491;46.898;7.660;2023-03-05T06:03:58;58.88;;;32.10;;
42840;SDS011;28491;46.898;7.660;2023-03-05T06:06:24;70.15;;;34.10;;
42840;SDS011;28491;46.898;7.660;2023-03-05T06:08:50;67.22;;;34.15;;
42840;SDS011;28491;46.898;7.660;2023-03-05T06:11:16;73.70;;;36.50;;
42840;SDS011;28491;46.898;7.660;2023-03-05T06:13:42;76.57;;;36.45;;
42840;SDS011;28491;46.898;7.660;2023-03-05T06:16:13;67.60;;;32.58;;
42840;SDS011;28491;46.898;7.660;2023-03-05T06:18:40;90.90;;;40.95;;
42840;SDS011;28491;46.898;7.660;2023-03-05T06:21:06;93.40;;;38.92;;
42840;SDS011;28491;46.898;7.660;2023-03-05T06:26:01;60.47;;;29.27;;
42840;SDS011;28491;46.898;7.660;2023-03-05T06:28:29;62.05;;;31.65;;
42840;SDS011;28491;46.898;7.660;2023-03-05T06:33:39;62.38;;;30.38;;
42840;SDS011;28491;46.898;7.660;2023-03-05T06:36:06;55.95;;;31.90;;
42840;SDS011;28491;46.898;7.660;2023-03-05T06:38:34;61.28;;;31.40;;
42840;SDS011;28491;46.898;7.660;2023-03-05T06:41:00;64.22;;;33.50;;
42840;SDS011;28491;46.898;7.660;2023-03-05T06:43:33;64.28;;;30.55;;
42840;SDS011;28491;46.898;7.660;2023-03-05T06:46:03;64.78;;;32.75;;
42840;SDS011;28491;46.898;7.660;2023-03-05T06:48:31;66.32;;;35.10;;
42840;SDS011;28491;46.898;7.660;2023-03-05T06:50:57;66.93;;;32.53;;
42840;SDS011;28491;46.898;7.660;2023-03-05T06:53:23;72.20;;;37.10;;
42840;SDS011;28491;46.898;7.660;2023-03-05T06:55:49;62.60;;;33.95;;
42840;SDS011;28491;46.898;7.660;2023-03-05T06:58:15;67.72;;;35.60;;
42840;SDS011;28491;46.898;7.660;2023-03-05T07:00:42;64.82;;;32.83;;
42840;SDS011;28491;46.898;7.660;2023-03-05T07:03:08;61.95;;;30.17;;
42840;SDS011;28491;46.898;7.660;2023-03-05T07:05:37;57.65;;;31.30;;
42840;SDS011;28491;46.898;7.660;2023-03-05T07:08:03;63.05;;;34.08;;
42840;SDS011;28491;46.898;7.660;2023-03-05T07:10:28;65.45;;;31.23;;
42840;SDS011;28491;46.898;7.660;2023-03-05T07:12:54;63.30;;;33.67;;
42840;SDS011;28491;46.898;7.660;2023-03-05T07:15:20;56.42;;;30.00;;
42840;SDS011;28491;46.898;7.660;2023-03-05T07:17:46;66.88;;;30.98;;
42840;SDS011;28491;46.898;7.660;2023-03-05T07:20:11;51.30;;;28.13;;
42840;SDS011;28491;46.898;7.660;2023-03-05T07:22:37;53.78;;;30.35;;
42840;SDS011;28491;46.898;7.660;2023-03-05T07:25:03;46.58;;;26.73;;
42840;SDS011;28491;46.898;7.660;2023-03-05T07:27:28;47.60;;;25.50;;
42840;SDS011;28491;46.898;7.660;2023-03-05T07:29:54;54.20;;;25.98;;
42840;SDS011;28491;46.898;7.660;2023-03-05T07:32:22;45.50;;;23.85;;
42840;SDS011;28491;46.898;7.660;2023-03-05T07:34:47;49.60;;;26.50;;
42840;SDS011;28491;46.898;7.660;2023-03-05T07:37:13;45.60;;;26.33;;
42840;SDS011;28491;46.898;7.660;2023-03-05T07:39:39;42.10;;;25.42;;
42840;SDS011;28491;46.898;7.660;2023-03-05T07:42:04;44.33;;;25.77;;
42840;SDS011;28491;46.898;7.660;2023-03-05T07:44:30;39.45;;;25.77;;
42840;SDS011;28491;46.898;7.660;2023-03-05T07:46:55;41.38;;;25.10;;
42840;SDS011;28491;46.898;7.660;2023-03-05T07:49:21;42.03;;;26.17;;
42840;SDS011;28491;46.898;7.660;2023-03-05T07:51:47;50.35;;;27.23;;
42840;SDS011;28491;46.898;7.660;2023-03-05T07:54:13;40.72;;;23.88;;
42840;SDS011;28491;46.898;7.660;2023-03-05T07:56:39;42.13;;;25.52;;
42840;SDS011;28491;46.898;7.660;2023-03-05T07:59:05;42.65;;;25.58;;
42840;SDS011;28491;46.898;7.660;2023-03-05T08:01:33;42.83;;;26.13;;
42840;SDS011;28491;46.898;7.660;2023-03-05T08:03:59;39.70;;;21.98;;
42840;SDS011;28491;46.898;7.660;2023-03-05T08:06:25;39.47;;;23.55;;
42840;SDS011;28491;46.898;7.660;2023-03-05T08:08:50;38.03;;;24.52;;
42840;SDS011;28491;46.898;7.660;2023-03-05T08:11:16;35.55;;;23.05;;
42840;SDS011;28491;46.898;7.660;2023-03-05T08:13:42;38.15;;;24.60;;
42840;SDS011;28491;46.898;7.660;2023-03-05T08:16:10;35.83;;;22.80;;
42840;SDS011;28491;46.898;7.660;2023-03-05T08:18:37;35.90;;;24.80;;
42840;SDS011;28491;46.898;7.660;2023-03-05T08:21:03;37.47;;;23.42;;
42840;SDS011;28491;46.898;7.660;2023-03-05T08:23:29;35.08;;;22.40;;
42840;SDS011;28491;46.898;7.660;2023-03-05T08:25:55;33.53;;;22.35;;
42840;SDS011;28491;46.898;7.660;2023-03-05T08:28:21;36.70;;;24.27;;
42840;SDS011;28491;46.898;7.660;2023-03-05T08:30:47;37.40;;;24.48;;
42840;SDS011;28491;46.898;7.660;2023-03-05T08:33:13;37.22;;;24.88;;
42840;SDS011;28491;46.898;7.660;2023-03-05T08:35:41;35.13;;;24.38;;
42840;SDS011;28491;46.898;7.660;2023-03-05T08:38:07;34.80;;;22.92;;
42840;SDS011;28491;46.898;7.660;2023-03-05T08:40:32;32.70;;;23.42;;
42840;SDS011;28491;46.898;7.660;2023-03-05T08:42:58;33.88;;;24.63;;
42840;SDS011;28491;46.898;7.660;2023-03-05T08:45:24;37.88;;;24.20;;
42840;SDS011;28491;46.898;7.660;2023-03-05T08:47:51;37.22;;;25.13;;
42840;SDS011;28491;46.898;7.660;2023-03-05T08:50:17;33.95;;;23.50;;
42840;SDS011;28491;46.898;7.660;2023-03-05T08:52:43;34.20;;;24.15;;
42840;SDS011;28491;46.898;7.660;2023-03-05T08:55:10;35.78;;;24.58;;
42840;SDS011;28491;46.898;7.660;2023-03-05T08:57:36;34.78;;;24.27;;
42840;SDS011;28491;46.898;7.660;2023-03-05T09:00:02;34.90;;;23.70;;
42840;SDS011;28491;46.898;7.660;2023-03-05T09:02:28;38.47;;;23.48;;
42840;SDS011;28491;46.898;7.660;2023-03-05T09:04:54;31.20;;;22.15;;
42840;SDS011;28491;46.898;7.660;2023-03-05T09:07:19;37.10;;;24.67;;
42840;SDS011;28491;46.898;7.660;2023-03-05T09:09:45;33.35;;;24.67;;
42840;SDS011;28491;46.898;7.660;2023-03-05T09:12:10;32.92;;;23.13;;
42840;SDS011;28491;46.898;7.660;2023-03-05T09:14:37;37.08;;;25.10;;
42840;SDS011;28491;46.898;7.660;2023-03-05T09:17:03;38.83;;;25.55;;
42840;SDS011;28491;46.898;7.660;2023-03-05T09:19:29;37.42;;;26.05;;
42840;SDS011;28491;46.898;7.660;2023-03-05T09:21:54;39.50;;;26.50;;
42840;SDS011;28491;46.898;7.660;2023-03-05T09:24:20;40.67;;;24.92;;
42840;SDS011;28491;46.898;7.660;2023-03-05T09:26:46;43.55;;;26.98;;
42840;SDS011;28491;46.898;7.660;2023-03-05T09:29:11;38.45;;;26.38;;
42840;SDS011;28491;46.898;7.660;2023-03-05T09:31:37;42.33;;;26.95;;
42840;SDS011;28491;46.898;7.660;2023-03-05T09:34:02;39.15;;;26.55;;
42840;SDS011;28491;46.898;7.660;2023-03-05T09:36:29;37.60;;;25.50;;
42840;SDS011;28491;46.898;7.660;2023-03-05T09:38:55;34.83;;;24.02;;
42840;SDS011;28491;46.898;7.660;2023-03-05T09:52:12;39.88;;;25.70;;
42840;SDS011;28491;46.898;7.660;2023-03-05T09:54:46;39.08;;;26.90;;
42840;SDS011;28491;46.898;7.660;2023-03-05T09:57:18;39.28;;;25.33;;
42840;SDS011;28491;46.898;7.660;2023-03-05T09:59:58;44.53;;;31.75;;
42840;SDS011;28491;46.898;7.660;2023-03-05T10:02:30;36.45;;;26.00;;
42840;SDS011;28491;46.898;7.660;2023-03-05T10:05:02;41.25;;;27.63;;
42840;SDS011;28491;46.898;7.660;2023-03-05T10:07:38;42.67;;;23.55;;
42840;SDS011;28491;46.898;7.660;2023-03-05T10:10:10;36.42;;;25.75;;
42840;SDS011;28491;46.898;7.660;2023-03-05T10:12:47;41.15;;;26.90;;
42840;SDS011;28491;46.898;7.660;2023-03-05T10:15:39;43.17;;;26.73;;
42840;SDS011;28491;46.898;7.660;2023-03-05T10:24:15;35.70;;;24.92;;
42840;SDS011;28491;46.898;7.660;2023-03-05T10:27:06;38.03;;;25.40;;
42840;SDS011;28491;46.898;7.660;2023-03-05T10:29:44;43.55;;;26.23;;
42840;SDS011;28491;46.898;7.660;2023-03-05T10:35:13;41.13;;;25.52;;
42840;SDS011;28491;46.898;7.660;2023-03-05T10:38:06;37.80;;;25.65;;
42840;SDS011;28491;46.898;7.660;2023-03-05T10:40:53;37.97;;;25.65;;
42840;SDS011;28491;46.898;7.660;2023-03-05T10:43:32;40.80;;;25.55;;
42840;SDS011;28491;46.898;7.660;2023-03-05T10:46:16;37.92;;;25.85;;
42840;SDS011;28491;46.898;7.660;2023-03-05T10:48:54;41.13;;;27.30;;
42840;SDS011;28491;46.898;7.660;2023-03-05T10:51:32;45.33;;;28.55;;
42840;SDS011;28491;46.898;7.660;2023-03-05T10:57:00;40.35;;;27.65;;
42840;SDS011;28491;46.898;7.660;2023-03-05T10:59:38;39.78;;;25.42;;
42840;SDS011;28491;46.898;7.660;2023-03-05T11:02:08;42.70;;;27.45;;
42840;SDS011;28491;46.898;7.660;2023-03-05T11:04:34;42.00;;;26.17;;
42840;SDS011;28491;46.898;7.660;2023-03-05T11:07:44;40.60;;;26.03;;
42840;SDS011;28491;46.898;7.660;2023-03-05T11:10:03;44.97;;;26.95;;
42840;SDS011;28491;46.898;7.660;2023-03-05T11:12:42;41.38;;;27.23;;
42840;SDS011;28491;46.898;7.660;2023-03-05T11:17:38;41.57;;;26.70;;
42840;SDS011;28491;46.898;7.660;2023-03-05T11:23:12;44.03;;;26.85;;
42840;SDS011;28491;46.898;7.660;2023-03-05T11:26:03;38.25;;;25.63;;
42840;SDS011;28491;46.898;7.660;2023-03-05T11:28:30;39.75;;;26.95;;
42840;SDS011;28491;46.898;7.660;2023-03-05T11:33:27;39.22;;;25.70;;
42840;SDS011;28491;46.898;7.660;2023-03-05T11:36:08;36.38;;;25.25;;
42840;SDS011;28491;46.898;7.660;2023-03-05T11:38:44;42.83;;;29.27;;
42840;SDS011;28491;46.898;7.660;2023-03-05T11:41:16;39.60;;;26.20;;
42840;SDS011;28491;46.898;7.660;2023-03-05T11:43:52;44.50;;;26.90;;
42840;SDS011;28491;46.898;7.660;2023-03-05T11:46:19;39.67;;;24.02;;
42840;SDS011;28491;46.898;7.660;2023-03-05T11:48:46;35.75;;;24.45;;
42840;SDS011;28491;46.898;7.660;2023-03-05T11:51:14;41.13;;;26.83;;
42840;SDS011;28491;46.898;7.660;2023-03-05T11:53:46;39.90;;;25.25;;
42840;SDS011;28491;46.898;7.660;2023-03-05T11:59:06;41.50;;;26.02;;
42840;SDS011;28491;46.898;7.660;2023-03-05T12:01:44;41.47;;;26.63;;
42840;SDS011;28491;46.898;7.660;2023-03-05T12:04:15;42.40;;;27.48;;
42840;SDS011;28491;46.898;7.660;2023-03-05T12:06:55;48.25;;;26.88;;
42840;SDS011;28491;46.898;7.660;2023-03-05T12:14:48;40.75;;;26.15;;
42840;SDS011;28491;46.898;7.660;2023-03-05T12:17:23;38.85;;;26.05;;
42840;SDS011;28491;46.898;7.660;2023-03-05T12:19:54;42.05;;;27.85;;
42840;SDS011;28491;46.898;7.660;2023-03-05T12:22:31;44.38;;;27.17;;
42840;SDS011;28491;46.898;7.660;2023-03-05T12:27:45;43.90;;;28.00;;
42840;SDS011;28491;46.898;7.660;2023-03-05T12:33:12;39.65;;;26.02;;
42840;SDS011;28491;46.898;7.660;2023-03-05T12:38:41;41.85;;;26.17;;
42840;SDS011;28491;46.898;7.660;2023-03-05T12:44:13;40.00;;;26.52;;
42840;SDS011;28491;46.898;7.660;2023-03-05T12:46:42;39.25;;;24.77;;
42840;SDS011;28491;46.898;7.660;2023-03-05T12:51:52;40.35;;;26.52;;
42840;SDS011;28491;46.898;7.660;2023-03-05T12:54:33;46.10;;;26.40;;
42840;SDS011;28491;46.898;7.660;2023-03-05T12:57:05;39.80;;;25.90;;
42840;SDS011;28491;46.898;7.660;2023-03-05T12:59:47;36.00;;;22.98;;
42840;SDS011;28491;46.898;7.660;2023-03-05T13:04:50;37.88;;;24.40;;
42840;SDS011;28491;46.898;7.660;2023-03-05T13:07:21;40.15;;;25.50;;
42840;SDS011;28491;46.898;7.660;2023-03-05T13:09:50;36.38;;;24.90;;
42840;SDS011;28491;46.898;7.660;2023-03-05T13:12:20;37.30;;;25.08;;
42840;SDS011;28491;46.898;7.660;2023-03-05T13:14:46;44.45;;;27.13;;
42840;SDS011;28491;46.898;7.660;2023-03-05T13:19:54;43.40;;;25.45;;
42840;SDS011;28491;46.898;7.660;2023-03-05T13:22:20;38.03;;;24.98;;
42840;SDS011;28491;46.898;7.660;2023-03-05T13:24:48;42.63;;;25.48;;
42840;SDS011;28491;46.898;7.660;2023-03-05T13:27:28;41.78;;;25.80;;
42840;SDS011;28491;46.898;7.660;2023-03-05T13:29:55;36.33;;;25.48;;
42840;SDS011;28491;46.898;7.660;2023-03-05T13:32:27;42.45;;;25.08;;
42840;SDS011;28491;46.898;7.660;2023-03-05T13:34:55;39.55;;;25.23;;
42840;SDS011;28491;46.898;7.660;2023-03-05T13:37:24;39.50;;;24.02;;
42840;SDS011;28491;46.898;7.660;2023-03-05T13:39:57;37.28;;;23.35;;
42840;SDS011;28491;46.898;7.660;2023-03-05T13:42:27;38.20;;;24.45;;
42840;SDS011;28491;46.898;7.660;2023-03-05T13:45:05;41.85;;;24.15;;
42840;SDS011;28491;46.898;7.660;2023-03-05T13:47:55;39.17;;;23.45;;
42840;SDS011;28491;46.898;7.660;2023-03-05T13:50:27;41.50;;;25.63;;
42840;SDS011;28491;46.898;7.660;2023-03-05T13:55:50;39.35;;;24.77;;
42840;SDS011;28491;46.898;7.660;2023-03-05T14:01:33;37.22;;;22.52;;
42840;SDS011;28491;46.898;7.660;2023-03-05T14:06:45;36.10;;;21.33;;
42840;SDS011;28491;46.898;7.660;2023-03-05T14:12:01;33.63;;;21.20;;
42840;SDS011;28491;46.898;7.660;2023-03-05T14:14:30;32.20;;;21.58;;
42840;SDS011;28491;46.898;7.660;2023-03-05T14:20:07;36.30;;;21.65;;
42840;SDS011;28491;46.898;7.660;2023-03-05T14:22:34;35.88;;;21.35;;
42840;SDS011;28491;46.898;7.660;2023-03-05T14:25:02;30.92;;;21.10;;
42840;SDS011;28491;46.898;7.660;2023-03-05T14:27:30;31.52;;;20.42;;
42840;SDS011;28491;46.898;7.660;2023-03-05T14:29:59;36.15;;;21.25;;
42840;SDS011;28491;46.898;7.660;2023-03-05T14:32:32;33.75;;;23.25;;
42840;SDS011;28491;46.898;7.660;2023-03-05T14:35:00;54.42;;;23.80;;
42840;SDS011;28491;46.898;7.660;2023-03-05T14:37:30;42.28;;;24.92;;
42840;SDS011;28491;46.898;7.660;2023-03-05T14:40:03;35.40;;;22.80;;
42840;SDS011;28491;46.898;7.660;2023-03-05T14:42:36;34.20;;;20.35;;
42840;SDS011;28491;46.898;7.660;2023-03-05T14:45:21;34.03;;;21.42;;
42840;SDS011;28491;46.898;7.660;2023-03-05T14:47:49;44.33;;;25.02;;
42840;SDS011;28491;46.898;7.660;2023-03-05T14:50:17;35.05;;;21.23;;
42840;SDS011;28491;46.898;7.660;2023-03-05T14:52:44;35.53;;;22.63;;
42840;SDS011;28491;46.898;7.660;2023-03-05T14:55:18;36.92;;;24.05;;
42840;SDS011;28491;46.898;7.660;2023-03-05T14:57:46;35.63;;;22.35;;
42840;SDS011;28491;46.898;7.660;2023-03-05T15:00:16;38.17;;;23.13;;
42840;SDS011;28491;46.898;7.660;2023-03-05T15:02:44;40.33;;;24.15;;
42840;SDS011;28491;46.898;7.660;2023-03-05T15:05:09;34.28;;;22.10;;
42840;SDS011;28491;46.898;7.660;2023-03-05T15:07:35;39.60;;;23.10;;
42840;SDS011;28491;46.898;7.660;2023-03-05T15:10:01;42.63;;;23.50;;
42840;SDS011;28491;46.898;7.660;2023-03-05T15:12:28;49.25;;;23.67;;
42840;SDS011;28491;46.898;7.660;2023-03-05T15:14:54;39.17;;;24.33;;
42840;SDS011;28491;46.898;7.660;2023-03-05T15:17:21;39.30;;;23.92;;
42840;SDS011;28491;46.898;7.660;2023-03-05T15:19:58;36.92;;;22.48;;
42840;SDS011;28491;46.898;7.660;2023-03-05T15:22:24;45.17;;;22.77;;
42840;SDS011;28491;46.898;7.660;2023-03-05T15:24:50;41.72;;;24.27;;
42840;SDS011;28491;46.898;7.660;2023-03-05T15:27:15;37.30;;;23.40;;
42840;SDS011;28491;46.898;7.660;2023-03-05T15:29:41;41.10;;;23.30;;
42840;SDS011;28491;46.898;7.660;2023-03-05T15:32:07;42.15;;;21.50;;
42840;SDS011;28491;46.898;7.660;2023-03-05T15:34:33;36.63;;;20.63;;
42840;SDS011;28491;46.898;7.660;2023-03-05T15:36:59;41.08;;;23.38;;
42840;SDS011;28491;46.898;7.660;2023-03-05T15:39:26;33.88;;;21.48;;
42840;SDS011;28491;46.898;7.660;2023-03-05T15:41:52;47.65;;;25.83;;
42840;SDS011;28491;46.898;7.660;2023-03-05T15:44:17;38.53;;;22.38;;
42840;SDS011;28491;46.898;7.660;2023-03-05T15:46:44;39.08;;;22.63;;
42840;SDS011;28491;46.898;7.660;2023-03-05T15:49:09;37.70;;;23.05;;
42840;SDS011;28491;46.898;7.660;2023-03-05T15:51:35;36.60;;;22.23;;
42840;SDS011;28491;46.898;7.660;2023-03-05T15:54:01;36.38;;;22.75;;